Time;durP1;ratioP1;P1;durP2;ratioP2;P2;SDS_P1;SDS_P2;PMS_P1;PMS_P2;Temp;Humidity;BMP_temperature;BMP_pressure;BME280_temperature;BME280_humidity;BME280_pressure;Samples;Min_cycle;Max_cycle;Signal;HPM_P1;HPM_P2
2023/08/14 00:00:10;;;;;;;;;;;19.20;99.90;;;;;;4899510;29;19923;-60
2023/08/14 00:02:40;;;;;;;;;;;19.30;99.90;;;;;;4914790;29;19923;-60
2023/08/14 00:05:07;;;;;;;;;;;19.30;99.90;;;;;;4898675;29;19974;-60
2023/08/14 00:07:34;;;;;;;;;;;19.30;99.90;;;;;;4909165;29;19931;-60
2023/08/14 00:10:00;;;;;;;;;;;19.20;99.90;;;;;;4907404;29;19926;-60
2023/08/14 00:12:27;;;;;;;;;;;19.10;99.90;;;;;;4901315;29;19923;-61
2023/08/14 00:14:54;;;;;;;;;;;19.10;99.90;;;;;;4902396;29;19923;-61
2023/08/14 00:17:20;;;;;;;;;;;19.00;99.90;;;;;;4902061;29;19947;-61
2023/08/14 00:19:47;;;;;;;;;;;19.00;99.90;;;;;;4917924;29;20329;-61
2023/08/14 00:22:14;;;;;;;;;;;19.10;99.90;;;;;;4914697;29;19923;-61
2023/08/14 00:24:41;;;;;;;;;;;19.10;99.90;;;;;;4904253;29;19959;-61
2023/08/14 00:27:08;;;;;;;;;;;19.10;99.90;;;;;;4907603;29;19930;-61
2023/08/14 00:29:35;;;;;;;;;;;19.10;99.90;;;;;;4904744;29;19931;-61
2023/08/14 00:32:02;;;;;;;;;;;19.10;99.90;;;;;;4905288;29;19927;-60
2023/08/14 00:34:28;;;;;;;;;;;19.10;99.90;;;;;;4910692;29;20377;-60
2023/08/14 00:36:55;;;;;;;;;;;19.10;99.90;;;;;;4910376;29;19929;-61
2023/08/14 00:39:22;;;;;;;;;;;19.10;99.90;;;;;;4889831;29;19923;-61
2023/08/14 00:41:49;;;;;;;;;;;19.10;99.90;;;;;;4910185;29;20361;-61
2023/08/14 00:44:15;;;;;;;;;;;19.10;99.90;;;;;;4913440;29;19929;-61
2023/08/14 00:46:42;;;;;;;;;;;19.00;99.90;;;;;;4925652;29;19927;-60
2023/08/14 00:49:10;;;;;;;;;;;19.00;99.90;;;;;;4926688;29;20034;-61
2023/08/14 00:51:37;;;;;;;;;;;19.00;99.90;;;;;;4898067;29;19923;-59
2023/08/14 00:54:04;;;;;;;;;;;19.00;99.90;;;;;;4918191;29;20297;-61
2023/08/14 00:56:30;;;;;;;;;;;19.00;99.90;;;;;;4907682;29;19938;-61
2023/08/14 00:58:57;;;;;;;;;;;19.00;99.90;;;;;;4912310;29;19923;-59
2023/08/14 01:01:24;;;;;;;;;;;19.00;99.90;;;;;;4915444;29;19927;-61
2023/08/14 01:03:51;;;;;;;;;;;19.00;99.90;;;;;;4917833;29;19923;-58
2023/08/14 01:06:18;;;;;;;;;;;18.90;99.90;;;;;;4923724;29;20274;-60
2023/08/14 01:08:46;;;;;;;;;;;18.90;99.90;;;;;;4905231;29;19979;-60
2023/08/14 01:11:22;;;;;;;;;;;18.90;99.90;;;;;;4913929;29;20302;-61
2023/08/14 01:13:57;;;;;;;;;;;18.90;99.90;;;;;;4910821;29;19954;-60
2023/08/14 01:16:27;;;;;;;;;;;18.90;99.90;;;;;;4913792;29;19930;-61
2023/08/14 01:18:55;;;;;;;;;;;18.90;99.90;;;;;;4921003;29;19930;-60
2023/08/14 01:21:34;;;;;;;;;;;18.90;99.90;;;;;;4909707;29;19929;-60
2023/08/14 01:24:09;;;;;;;;;;;18.90;99.90;;;;;;4925973;29;20385;-61
2023/08/14 01:26:35;;;;;;;;;;;18.90;99.90;;;;;;4911059;29;19931;-60
2023/08/14 01:29:02;;;;;;;;;;;18.90;99.90;;;;;;4916334;29;20301;-60
2023/08/14 01:31:30;;;;;;;;;;;19.00;99.90;;;;;;4923699;29;19923;-60
2023/08/14 01:33:57;;;;;;;;;;;19.00;99.90;;;;;;4916474;29;19930;-60
2023/08/14 01:36:27;;;;;;;;;;;19.00;99.90;;;;;;4924939;29;19930;-59
2023/08/14 01:39:15;;;;;;;;;;;18.90;99.90;;;;;;4932860;29;20332;-60
2023/08/14 01:41:45;;;;;;;;;;;18.90;99.90;;;;;;4928429;29;19923;-60
2023/08/14 01:44:14;;;;;;;;;;;18.90;99.90;;;;;;4923117;29;20006;-59
2023/08/14 01:46:42;;;;;;;;;;;18.90;99.90;;;;;;4912895;29;19929;-61
2023/08/14 01:49:12;;;;;;;;;;;18.90;99.90;;;;;;4914526;29;19931;-61
2023/08/14 01:51:39;;;;;;;;;;;18.90;99.90;;;;;;4919245;29;19923;-61
2023/08/14 01:54:06;;;;;;;;;;;18.80;99.90;;;;;;4914871;29;19939;-60
2023/08/14 01:56:32;;;;;;;;;;;18.80;99.90;;;;;;4899669;29;19927;-57
2023/08/14 01:58:59;;;;;;;;;;;18.80;99.90;;;;;;4910073;29;20377;-61
2023/08/14 02:01:26;;;;;;;;;;;18.70;99.90;;;;;;4916848;29;19975;-60
2023/08/14 02:03:52;;;;;;;;;;;18.80;99.90;;;;;;4927188;29;19927;-61
2023/08/14 02:06:19;;;;;;;;;;;18.80;99.90;;;;;;4913186;29;19929;-61
2023/08/14 02:08:46;;;;;;;;;;;18.80;99.90;;;;;;4906682;29;19927;-59
2023/08/14 02:11:13;;;;;;;;;;;18.80;99.90;;;;;;4914902;29;20450;-60
2023/08/14 02:13:39;;;;;;;;;;;18.70;99.90;;;;;;4921580;29;19924;-60
2023/08/14 02:16:06;;;;;;;;;;;18.80;99.90;;;;;;4914530;29;19931;-59
2023/08/14 02:18:33;;;;;;;;;;;18.80;99.90;;;;;;4905422;29;19923;-61
2023/08/14 02:21:00;;;;;;;;;;;18.70;99.90;;;;;;4913277;29;19923;-60
2023/08/14 02:23:26;;;;;;;;;;;18.80;99.90;;;;;;4922384;29;19938;-61
2023/08/14 02:25:55;;;;;;;;;;;18.80;99.90;;;;;;4910206;29;19966;-58
2023/08/14 02:28:22;;;;;;;;;;;18.80;99.90;;;;;;4907442;29;19931;-59
2023/08/14 02:30:49;;;;;;;;;;;18.80;99.90;;;;;;4906167;29;19935;-60
2023/08/14 02:33:17;;;;;;;;;;;18.80;99.90;;;;;;4905402;29;19978;-60
2023/08/14 02:35:43;;;;;;;;;;;18.80;99.90;;;;;;4911448;29;20297;-60
2023/08/14 02:38:10;;;;;;;;;;;18.70;99.90;;;;;;4915648;29;19924;-61
2023/08/14 02:40:37;;;;;;;;;;;18.80;99.90;;;;;;4927868;29;19959;-60
2023/08/14 02:43:04;;;;;;;;;;;18.70;99.90;;;;;;4913983;29;19927;-60
2023/08/14 02:45:32;;;;;;;;;;;18.70;99.90;;;;;;4909565;29;19930;-60
2023/08/14 02:47:59;;;;;;;;;;;18.70;99.90;;;;;;4920912;29;19927;-61
2023/08/14 02:50:27;;;;;;;;;;;18.70;99.90;;;;;;4909121;29;19923;-61
2023/08/14 02:52:54;;;;;;;;;;;18.70;99.90;;;;;;4918308;29;20432;-60
2023/08/14 02:55:21;;;;;;;;;;;18.70;99.90;;;;;;4911712;29;19923;-61
2023/08/14 02:57:48;;;;;;;;;;;18.70;99.90;;;;;;4899226;29;19930;-59
2023/08/14 03:00:14;;;;;;;;;;;18.70;99.90;;;;;;4929157;29;19974;-59
2023/08/14 03:02:41;;;;;;;;;;;18.60;99.90;;;;;;4917954;29;19939;-60
2023/08/14 03:05:08;;;;;;;;;;;18.60;99.90;;;;;;4907364;29;20408;-61
2023/08/14 03:07:35;;;;;;;;;;;18.60;99.90;;;;;;4903544;29;19923;-60
2023/08/14 03:10:01;;;;;;;;;;;18.60;99.90;;;;;;4889805;29;19987;-60
2023/08/14 03:12:28;;;;;;;;;;;18.60;99.90;;;;;;4910828;29;20381;-61
2023/08/14 03:14:55;;;;;;;;;;;18.60;99.90;;;;;;4901926;29;20345;-61
2023/08/14 03:17:21;;;;;;;;;;;18.60;99.90;;;;;;4902871;29;19923;-61
2023/08/14 03:19:48;;;;;;;;;;;18.60;99.90;;;;;;4908379;29;19942;-60
2023/08/14 03:22:15;;;;;;;;;;;18.60;99.90;;;;;;4914647;29;19923;-60
2023/08/14 03:24:43;;;;;;;;;;;18.60;99.90;;;;;;4930477;29;19923;-59
2023/08/14 03:27:09;;;;;;;;;;;18.70;99.90;;;;;;4920791;29;20388;-60
2023/08/14 03:29:36;;;;;;;;;;;18.60;99.90;;;;;;4907345;29;20022;-61
2023/08/14 03:32:03;;;;;;;;;;;18.60;99.90;;;;;;4928669;29;20013;-61
2023/08/14 03:34:29;;;;;;;;;;;18.60;99.90;;;;;;4918068;29;19931;-59
2023/08/14 03:36:57;;;;;;;;;;;18.60;99.90;;;;;;4906737;29;20010;-60
2023/08/14 03:39:24;;;;;;;;;;;18.60;99.90;;;;;;4920710;29;19938;-60
2023/08/14 03:41:50;;;;;;;;;;;18.60;99.90;;;;;;4915895;29;20006;-59
2023/08/14 03:44:17;;;;;;;;;;;18.60;99.90;;;;;;4919771;29;19927;-60
2023/08/14 03:46:44;;;;;;;;;;;18.60;99.90;;;;;;4917871;29;20063;-60
2023/08/14 03:49:11;;;;;;;;;;;18.70;99.90;;;;;;4912266;29;20288;-61
2023/08/14 03:51:37;;;;;;;;;;;18.70;99.90;;;;;;4922882;29;20395;-61
2023/08/14 03:54:05;;;;;;;;;;;18.70;99.90;;;;;;4922340;29;19927;-60
2023/08/14 03:56:31;;;;;;;;;;;18.70;99.90;;;;;;4897852;29;19931;-61
2023/08/14 03:58:58;;;;;;;;;;;18.70;99.90;;;;;;4918243;29;19924;-60
2023/08/14 04:01:25;;;;;;;;;;;18.70;99.90;;;;;;4909766;29;19931;-60
2023/08/14 04:03:51;;;;;;;;;;;18.70;99.90;;;;;;4905572;29;19923;-60
2023/08/14 04:06:19;;;;;;;;;;;18.70;99.90;;;;;;4926202;29;19978;-59
2023/08/14 04:08:46;;;;;;;;;;;18.70;99.90;;;;;;4895438;29;19935;-61
2023/08/14 04:11:12;;;;;;;;;;;18.80;99.90;;;;;;4895420;29;19923;-61
2023/08/14 04:13:39;;;;;;;;;;;18.80;99.90;;;;;;4919739;29;20487;-60
2023/08/14 04:16:06;;;;;;;;;;;18.80;99.90;;;;;;4907192;29;19923;-60
2023/08/14 04:18:33;;;;;;;;;;;18.80;99.90;;;;;;4920203;29;20455;-60
2023/08/14 04:21:00;;;;;;;;;;;18.80;99.90;;;;;;4924051;29;20010;-61
2023/08/14 04:23:28;;;;;;;;;;;18.90;99.90;;;;;;4898696;29;19923;-58
2023/08/14 04:25:55;;;;;;;;;;;19.00;99.90;;;;;;4908950;29;19923;-60
2023/08/14 04:28:22;;;;;;;;;;;19.00;99.90;;;;;;4909508;29;19953;-59
2023/08/14 04:30:49;;;;;;;;;;;19.10;99.90;;;;;;4902354;29;19931;-61
2023/08/14 04:33:16;;;;;;;;;;;19.20;99.90;;;;;;4914109;29;20361;-60
2023/08/14 04:35:44;;;;;;;;;;;19.30;99.90;;;;;;4913849;29;19946;-60
2023/08/14 04:38:11;;;;;;;;;;;19.40;99.90;;;;;;4898399;29;19923;-58
2023/08/14 04:40:42;;;;;;;;;;;19.40;99.90;;;;;;4899438;29;19965;-60
2023/08/14 04:43:10;;;;;;;;;;;19.50;99.90;;;;;;4920625;29;19923;-60
2023/08/14 04:45:36;;;;;;;;;;;19.50;99.90;;;;;;4907984;29;19923;-60
2023/08/14 04:48:03;;;;;;;;;;;19.50;99.90;;;;;;4894009;29;19975;-60
2023/08/14 04:50:30;;;;;;;;;;;19.50;99.90;;;;;;4906058;29;20013;-60
2023/08/14 04:52:57;;;;;;;;;;;19.50;99.90;;;;;;4915834;29;19923;-59
2023/08/14 04:55:24;;;;;;;;;;;19.60;99.90;;;;;;4905369;29;20021;-60
2023/08/14 04:57:52;;;;;;;;;;;19.60;99.90;;;;;;4897623;29;20027;-59
2023/08/14 05:00:19;;;;;;;;;;;19.70;99.90;;;;;;4923786;29;19923;-60
2023/08/14 05:02:46;;;;;;;;;;;19.70;99.90;;;;;;4898197;29;19922;-59
2023/08/14 05:05:13;;;;;;;;;;;19.70;99.90;;;;;;4921376;29;19971;-59
2023/08/14 05:07:39;;;;;;;;;;;19.70;99.90;;;;;;4902083;29;19924;-60
2023/08/14 05:10:06;;;;;;;;;;;19.80;99.90;;;;;;4906264;29;19923;-60
2023/08/14 05:12:33;;;;;;;;;;;19.80;99.90;;;;;;4921130;29;19934;-60
2023/08/14 05:15:00;;;;;;;;;;;19.80;99.90;;;;;;4920470;29;19923;-60
2023/08/14 05:17:27;;;;;;;;;;;19.90;99.90;;;;;;4914692;29;19943;-61
2023/08/14 05:19:55;;;;;;;;;;;20.00;99.90;;;;;;4889693;29;19924;-61
2023/08/14 05:22:22;;;;;;;;;;;20.00;99.90;;;;;;4893774;29;19930;-60
2023/08/14 05:24:48;;;;;;;;;;;20.00;99.90;;;;;;4896482;29;19946;-59
2023/08/14 05:27:15;;;;;;;;;;;20.00;99.90;;;;;;4906431;29;19955;-60
2023/08/14 05:29:42;;;;;;;;;;;20.10;99.90;;;;;;4904705;29;19922;-61
2023/08/14 05:32:08;;;;;;;;;;;20.10;99.90;;;;;;4908067;29;19994;-61
2023/08/14 05:34:35;;;;;;;;;;;20.20;99.90;;;;;;4905697;29;19927;-60
2023/08/14 05:37:02;;;;;;;;;;;20.10;99.90;;;;;;4911255;29;19930;-60
2023/08/14 05:39:28;;;;;;;;;;;20.10;99.90;;;;;;4901794;29;20817;-59
2023/08/14 05:41:55;;;;;;;;;;;20.20;99.90;;;;;;4894953;29;19972;-61
2023/08/14 05:44:22;;;;;;;;;;;20.20;99.90;;;;;;4908792;29;20296;-60
2023/08/14 05:46:48;;;;;;;;;;;20.20;99.90;;;;;;4907686;29;19923;-60
2023/08/14 05:49:16;;;;;;;;;;;20.20;99.90;;;;;;4906751;29;19927;-61
2023/08/14 05:51:43;;;;;;;;;;;20.20;99.90;;;;;;4903657;29;19923;-60
2023/08/14 05:54:09;;;;;;;;;;;20.20;99.90;;;;;;4908204;29;19923;-59
2023/08/14 05:56:36;;;;;;;;;;;20.20;99.90;;;;;;4911514;29;19929;-61
2023/08/14 05:59:03;;;;;;;;;;;20.20;99.90;;;;;;4897604;29;20312;-61
2023/08/14 06:01:29;;;;;;;;;;;20.20;99.90;;;;;;4907382;29;20329;-60
2023/08/14 06:03:56;;;;;;;;;;;20.20;99.90;;;;;;4914657;29;19927;-60
2023/08/14 06:06:23;;;;;;;;;;;20.20;99.90;;;;;;4902361;29;20015;-61
2023/08/14 06:08:50;;;;;;;;;;;20.20;99.90;;;;;;4899039;29;20288;-59
2023/08/14 06:11:16;;;;;;;;;;;20.20;99.90;;;;;;4905502;29;20322;-61
2023/08/14 06:13:43;;;;;;;;;;;20.20;99.90;;;;;;4907822;29;20688;-60
2023/08/14 06:16:10;;;;;;;;;;;20.20;99.90;;;;;;4913186;29;20295;-61
2023/08/14 06:18:37;;;;;;;;;;;20.30;99.90;;;;;;4904568;29;19928;-60
2023/08/14 06:21:04;;;;;;;;;;;20.30;99.90;;;;;;4911615;29;19931;-60
2023/08/14 06:23:30;;;;;;;;;;;20.40;99.90;;;;;;4911144;29;19923;-61
2023/08/14 06:25:58;;;;;;;;;;;20.50;99.90;;;;;;4908929;29;19923;-61
2023/08/14 06:28:24;;;;;;;;;;;20.60;99.90;;;;;;4906136;29;19931;-61
2023/08/14 06:30:51;;;;;;;;;;;20.70;99.90;;;;;;4896280;29;19978;-61
2023/08/14 06:33:18;;;;;;;;;;;20.90;99.90;;;;;;4906601;29;20420;-61
2023/08/14 06:35:44;;;;;;;;;;;21.10;99.90;;;;;;4906353;29;19923;-60
2023/08/14 06:38:11;;;;;;;;;;;21.20;99.90;;;;;;4905266;29;20499;-60
2023/08/14 06:40:38;;;;;;;;;;;21.30;99.90;;;;;;4902748;29;19931;-60
2023/08/14 06:43:06;;;;;;;;;;;21.40;99.90;;;;;;4903786;29;19923;-61
2023/08/14 06:45:33;;;;;;;;;;;21.50;99.90;;;;;;4904415;29;19927;-61
2023/08/14 06:48:00;;;;;;;;;;;21.60;99.90;;;;;;4902123;29;20447;-61
2023/08/14 06:50:27;;;;;;;;;;;21.60;99.90;;;;;;4905855;29;19927;-60
2023/08/14 06:52:53;;;;;;;;;;;21.70;99.90;;;;;;4892579;29;19929;-60
2023/08/14 06:55:20;;;;;;;;;;;21.80;99.90;;;;;;4910249;29;19927;-60
2023/08/14 06:57:47;;;;;;;;;;;21.90;99.90;;;;;;4909535;29;19959;-61
2023/08/14 07:00:14;;;;;;;;;;;22.00;99.90;;;;;;4903189;29;20278;-61
2023/08/14 07:02:43;;;;;;;;;;;22.00;99.90;;;;;;4904647;29;19930;-61
2023/08/14 07:05:10;;;;;;;;;;;22.10;99.90;;;;;;4901948;29;20023;-61
2023/08/14 07:07:38;;;;;;;;;;;22.10;99.90;;;;;;4912917;29;20286;-60
2023/08/14 07:10:05;;;;;;;;;;;22.20;99.90;;;;;;4902243;29;19934;-61
2023/08/14 07:12:31;;;;;;;;;;;22.30;99.90;;;;;;4895498;29;20373;-60
2023/08/14 07:15:00;;;;;;;;;;;22.30;99.90;;;;;;4901296;29;19930;-60
2023/08/14 07:17:27;;;;;;;;;;;22.40;99.90;;;;;;4906701;29;20388;-61
2023/08/14 07:19:54;;;;;;;;;;;22.40;99.90;;;;;;4908234;29;19923;-61
2023/08/14 07:22:20;;;;;;;;;;;22.50;99.90;;;;;;4897355;29;19931;-59
2023/08/14 07:24:47;;;;;;;;;;;22.60;99.90;;;;;;4904273;29;19923;-61
2023/08/14 07:27:14;;;;;;;;;;;22.60;99.90;;;;;;4899209;29;19956;-61
2023/08/14 07:29:41;;;;;;;;;;;22.60;99.90;;;;;;4899081;29;20022;-61
2023/08/14 07:32:10;;;;;;;;;;;22.70;99.90;;;;;;4902329;29;19931;-61
2023/08/14 07:34:37;;;;;;;;;;;22.70;99.90;;;;;;4898430;29;19934;-60
2023/08/14 07:37:04;;;;;;;;;;;22.80;99.90;;;;;;4901536;29;19923;-60
2023/08/14 07:39:30;;;;;;;;;;;23.00;99.90;;;;;;4898797;29;19934;-61
2023/08/14 07:41:57;;;;;;;;;;;23.10;99.90;;;;;;4901481;29;20408;-59
2023/08/14 07:44:24;;;;;;;;;;;23.10;99.90;;;;;;4900234;29;19923;-61
2023/08/14 07:46:50;;;;;;;;;;;23.30;99.90;;;;;;4898516;29;19930;-60
2023/08/14 07:49:17;;;;;;;;;;;23.30;99.90;;;;;;4895189;29;20005;-60
2023/08/14 07:51:44;;;;;;;;;;;23.40;99.90;;;;;;4896534;29;19927;-60
2023/08/14 07:54:10;;;;;;;;;;;23.50;99.90;;;;;;4898161;29;19923;-61
2023/08/14 07:56:37;;;;;;;;;;;23.70;99.90;;;;;;4897369;29;19931;-60
2023/08/14 07:59:05;;;;;;;;;;;23.80;99.90;;;;;;4891773;29;19943;-60
2023/08/14 08:01:32;;;;;;;;;;;23.90;99.90;;;;;;4896206;29;20442;-60
2023/08/14 08:03:59;;;;;;;;;;;24.10;99.90;;;;;;4896026;29;19928;-61
2023/08/14 08:06:26;;;;;;;;;;;24.20;99.90;;;;;;4893531;29;19924;-60
2023/08/14 08:08:53;;;;;;;;;;;24.20;99.90;;;;;;4895130;29;20411;-60
2023/08/14 08:11:21;;;;;;;;;;;24.30;99.90;;;;;;4895900;29;19927;-60
2023/08/14 08:13:47;;;;;;;;;;;24.40;99.90;;;;;;4897220;29;19923;-61
2023/08/14 08:16:14;;;;;;;;;;;24.40;99.90;;;;;;4896343;29;20020;-61
2023/08/14 08:18:41;;;;;;;;;;;24.40;99.90;;;;;;4895275;29;19986;-61
2023/08/14 08:21:08;;;;;;;;;;;24.50;99.90;;;;;;4905903;29;20391;-60
2023/08/14 08:23:34;;;;;;;;;;;24.50;99.90;;;;;;4906185;29;19946;-61
2023/08/14 08:26:01;;;;;;;;;;;24.60;99.90;;;;;;4898218;29;19949;-58
2023/08/14 08:28:28;;;;;;;;;;;24.60;99.90;;;;;;4908220;29;20010;-60
2023/08/14 08:30:54;;;;;;;;;;;24.70;99.90;;;;;;4914245;29;19930;-59
2023/08/14 08:33:21;;;;;;;;;;;24.80;99.90;;;;;;4903255;29;19931;-61
2023/08/14 08:35:53;;;;;;;;;;;24.80;99.90;;;;;;4913157;29;20021;-59
2023/08/14 08:38:20;;;;;;;;;;;25.00;99.90;;;;;;4902476;29;19931;-60
2023/08/14 08:40:48;;;;;;;;;;;25.20;99.90;;;;;;4904498;29;19930;-60
2023/08/14 08:43:16;;;;;;;;;;;25.30;99.90;;;;;;4900011;29;19975;-60
2023/08/14 08:45:47;;;;;;;;;;;25.40;99.90;;;;;;4907079;29;20578;-61
2023/08/14 08:48:16;;;;;;;;;;;25.50;99.90;;;;;;4900993;29;19927;-59
2023/08/14 08:50:43;;;;;;;;;;;25.70;99.90;;;;;;4904145;29;20018;-60
2023/08/14 08:53:11;;;;;;;;;;;25.90;99.90;;;;;;4898695;29;19930;-61
2023/08/14 08:55:38;;;;;;;;;;;25.70;99.90;;;;;;4906126;29;19931;-61
2023/08/14 08:58:05;;;;;;;;;;;25.70;99.90;;;;;;4895034;29;20005;-60
2023/08/14 09:00:32;;;;;;;;;;;25.70;99.90;;;;;;4903733;29;19923;-60
2023/08/14 09:02:59;;;;;;;;;;;25.80;99.90;;;;;;4904692;29;19937;-61
2023/08/14 09:05:27;;;;;;;;;;;25.90;99.90;;;;;;4902984;29;20391;-59
2023/08/14 09:07:54;;;;;;;;;;;25.90;99.90;;;;;;4904099;29;19931;-61
2023/08/14 09:10:21;;;;;;;;;;;26.00;99.90;;;;;;4914280;29;19934;-61
2023/08/14 09:12:48;;;;;;;;;;;26.00;99.90;;;;;;4901360;29;19931;-61
2023/08/14 09:15:14;;;;;;;;;;;26.10;99.90;;;;;;4896581;29;19930;-60
2023/08/14 09:17:41;;;;;;;;;;;26.30;99.90;;;;;;4896571;29;20002;-60
2023/08/14 09:20:14;;;;;;;;;;;26.40;99.90;;;;;;4895610;29;20455;-61
2023/08/14 09:22:55;;;;;;;;;;;26.50;99.90;;;;;;4893640;29;19931;-60
2023/08/14 09:25:21;;;;;;;;;;;26.50;99.90;;;;;;4895281;29;19927;-61
2023/08/14 09:27:48;;;;;;;;;;;26.60;99.90;;;;;;4896957;29;19958;-59
2023/08/14 09:30:15;;;;;;;;;;;26.70;99.90;;;;;;4897678;29;19923;-60
2023/08/14 09:32:42;;;;;;;;;;;26.80;99.90;;;;;;4894738;29;20410;-59
2023/08/14 09:35:08;;;;;;;;;;;26.90;99.90;;;;;;4898111;29;20308;-60
2023/08/14 09:37:35;;;;;;;;;;;27.10;99.90;;;;;;4899847;29;19930;-60
2023/08/14 09:40:16;;;;;;;;;;;27.10;99.90;;;;;;4906893;29;19927;-58
2023/08/14 09:42:43;;;;;;;;;;;27.00;99.90;;;;;;4899978;29;19927;-59
2023/08/14 09:45:11;;;;;;;;;;;27.10;99.90;;;;;;4905095;29;19935;-58
2023/08/14 09:47:37;;;;;;;;;;;27.10;99.90;;;;;;4907522;29;20021;-61
2023/08/14 09:50:06;;;;;;;;;;;27.20;99.90;;;;;;4906096;29;19923;-61
2023/08/14 09:52:33;;;;;;;;;;;27.20;99.90;;;;;;4911017;29;19923;-60
2023/08/14 09:55:02;;;;;;;;;;;27.30;99.90;;;;;;4902977;29;19923;-61
2023/08/14 09:57:37;;;;;;;;;;;27.50;99.90;;;;;;4904372;29;19923;-61
2023/08/14 10:00:04;;;;;;;;;;;27.60;99.90;;;;;;4909189;29;20022;-61
2023/08/14 10:02:32;;;;;;;;;;;27.70;99.90;;;;;;4918115;29;20372;-61
2023/08/14 10:05:01;;;;;;;;;;;27.80;99.90;;;;;;4898236;29;20370;-62
2023/08/14 10:07:28;;;;;;;;;;;27.90;99.90;;;;;;4901640;29;20368;-60
2023/08/14 10:09:55;;;;;;;;;;;28.00;99.90;;;;;;4898914;29;19946;-62
2023/08/14 10:12:23;;;;;;;;;;;28.30;99.90;;;;;;4902414;29;19927;-61
2023/08/14 10:15:03;;;;;;;;;;;28.40;99.90;;;;;;4899544;29;19923;-62
2023/08/14 10:17:32;;;;;;;;;;;28.60;99.90;;;;;;4897422;29;19934;-62
2023/08/14 10:20:00;;;;;;;;;;;28.70;99.90;;;;;;4899644;29;19923;-62
2023/08/14 10:22:28;;;;;;;;;;;28.80;99.90;;;;;;4903427;29;19923;-60
2023/08/14 10:24:55;;;;;;;;;;;28.80;99.90;;;;;;4906047;29;19923;-61
2023/08/14 10:27:22;;;;;;;;;;;28.70;99.90;;;;;;4909403;29;19945;-60
2023/08/14 10:29:49;;;;;;;;;;;28.60;99.90;;;;;;4907083;29;19962;-61
2023/08/14 10:32:16;;;;;;;;;;;28.80;99.90;;;;;;4905876;29;19923;-60
2023/08/14 10:34:43;;;;;;;;;;;28.70;99.90;;;;;;4897010;29;19935;-61
2023/08/14 10:37:26;;;;;;;;;;;28.80;99.90;;;;;;4916738;29;20379;-62
2023/08/14 10:39:57;;;;;;;;;;;29.00;99.90;;;;;;4915522;29;19923;-60
2023/08/14 10:42:24;;;;;;;;;;;28.90;99.90;;;;;;4917108;29;19923;-61
2023/08/14 10:44:51;;;;;;;;;;;29.00;99.90;;;;;;4911374;29;19927;-62
2023/08/14 10:47:17;;;;;;;;;;;29.00;99.90;;;;;;4909206;29;19927;-62
2023/08/14 10:49:50;;;;;;;;;;;29.20;99.90;;;;;;4913629;29;19958;-62
2023/08/14 10:52:20;;;;;;;;;;;29.30;99.90;;;;;;4906659;29;20026;-62
2023/08/14 10:54:51;;;;;;;;;;;29.20;99.90;;;;;;4902163;29;19941;-62
2023/08/14 10:57:17;;;;;;;;;;;29.10;99.90;;;;;;4896498;29;20397;-61
2023/08/14 10:59:54;;;;;;;;;;;29.20;99.90;;;;;;4913212;29;19923;-62
2023/08/14 11:02:20;;;;;;;;;;;29.00;99.90;;;;;;4914568;29;20358;-62
2023/08/14 11:05:01;;;;;;;;;;;29.00;99.90;;;;;;4899777;29;19979;-62
2023/08/14 11:07:28;;;;;;;;;;;29.00;99.90;;;;;;4895032;29;19935;-61
2023/08/14 11:09:56;;;;;;;;;;;28.90;99.90;;;;;;4894145;29;19930;-62
2023/08/14 11:12:23;;;;;;;;;;;29.10;99.90;;;;;;4895318;29;19923;-61
2023/08/14 11:14:50;;;;;;;;;;;29.00;99.90;;;;;;4895306;29;19924;-60
2023/08/14 11:17:17;;;;;;;;;;;29.30;99.90;;;;;;4895945;29;19930;-62
2023/08/14 11:19:44;;;;;;;;;;;29.50;99.90;;;;;;4899090;29;19931;-62
2023/08/14 11:22:11;;;;;;;;;;;29.50;99.90;;;;;;4897294;29;19931;-61
2023/08/14 11:24:38;;;;;;;;;;;29.50;99.90;;;;;;4899362;29;19930;-62
2023/08/14 11:27:05;;;;;;;;;;;29.50;99.90;;;;;;4890093;29;20010;-61
2023/08/14 11:29:31;;;;;;;;;;;29.50;99.90;;;;;;4895371;29;19923;-61
2023/08/14 11:32:00;;;;;;;;;;;29.60;99.90;;;;;;4901829;29;19923;-62
2023/08/14 11:34:27;;;;;;;;;;;29.60;99.90;;;;;;4906406;29;19923;-62
2023/08/14 11:36:56;;;;;;;;;;;29.80;99.90;;;;;;4900007;29;20316;-62
2023/08/14 11:39:25;;;;;;;;;;;29.80;99.90;;;;;;4898778;29;19954;-62
2023/08/14 11:41:52;;;;;;;;;;;29.80;99.90;;;;;;4897902;29;19923;-61
2023/08/14 11:44:19;;;;;;;;;;;29.80;99.90;;;;;;4902984;29;20014;-61
2023/08/14 11:46:47;;;;;;;;;;;29.90;99.90;;;;;;4903643;29;20300;-62
2023/08/14 11:49:14;;;;;;;;;;;30.10;99.90;;;;;;4905825;29;20344;-62
2023/08/14 11:51:41;;;;;;;;;;;30.30;99.90;;;;;;4910386;29;19927;-62
2023/08/14 11:54:09;;;;;;;;;;;30.30;99.90;;;;;;4909407;29;19923;-62
2023/08/14 11:56:37;;;;;;;;;;;30.30;99.90;;;;;;4907314;29;19931;-60
2023/08/14 11:59:05;;;;;;;;;;;30.40;99.90;;;;;;4904438;29;19923;-62
2023/08/14 12:01:34;;;;;;;;;;;30.40;99.90;;;;;;4910093;29;19982;-62
2023/08/14 12:04:01;;;;;;;;;;;30.60;99.90;;;;;;4908336;29;20154;-61
2023/08/14 12:06:28;;;;;;;;;;;30.50;99.90;;;;;;4896227;29;19924;-61
2023/08/14 12:08:55;;;;;;;;;;;30.50;99.90;;;;;;4904181;29;19927;-62
2023/08/14 12:11:21;;;;;;;;;;;30.40;99.90;;;;;;4898661;29;19923;-59
2023/08/14 12:13:50;;;;;;;;;;;30.60;99.90;;;;;;4907983;29;19923;-61
2023/08/14 12:16:17;;;;;;;;;;;30.80;99.90;;;;;;4905919;29;19927;-62
2023/08/14 12:18:47;;;;;;;;;;;30.90;99.90;;;;;;4903896;29;20020;-61
2023/08/14 12:21:14;;;;;;;;;;;31.00;99.90;;;;;;4911488;29;20305;-62
2023/08/14 12:23:43;;;;;;;;;;;30.80;99.90;;;;;;4903806;29;19960;-62
2023/08/14 12:26:10;;;;;;;;;;;30.70;99.90;;;;;;4912806;29;19923;-62
2023/08/14 12:28:36;;;;;;;;;;;30.70;99.90;;;;;;4902138;29;19946;-62
2023/08/14 12:31:03;;;;;;;;;;;30.80;99.90;;;;;;4901531;29;19930;-60
2023/08/14 12:33:30;;;;;;;;;;;31.00;99.90;;;;;;4895566;29;19923;-62
2023/08/14 12:35:57;;;;;;;;;;;30.90;99.90;;;;;;4911571;29;20365;-62
2023/08/14 12:38:23;;;;;;;;;;;31.00;99.90;;;;;;4905565;29;20385;-61
2023/08/14 12:40:50;;;;;;;;;;;31.00;99.90;;;;;;4910952;29;20270;-62
2023/08/14 12:43:17;;;;;;;;;;;31.00;99.90;;;;;;4898767;29;19927;-62
2023/08/14 12:45:50;;;;;;;;;;;30.90;99.90;;;;;;4897198;29;20290;-62
2023/08/14 12:48:17;;;;;;;;;;;30.90;99.90;;;;;;4896032;29;19924;-61
2023/08/14 12:50:44;;;;;;;;;;;31.00;99.90;;;;;;4897175;29;19969;-62
2023/08/14 12:53:16;;;;;;;;;;;31.00;99.90;;;;;;4893132;29;19931;-62
2023/08/14 12:55:44;;;;;;;;;;;31.10;99.90;;;;;;4895983;29;19962;-62
2023/08/14 12:58:11;;;;;;;;;;;31.20;99.90;;;;;;4889281;29;19930;-61
2023/08/14 13:00:38;;;;;;;;;;;31.20;99.90;;;;;;4896134;29;19927;-61
2023/08/14 13:03:05;;;;;;;;;;;31.00;99.90;;;;;;4900435;29;19971;-61
2023/08/14 13:05:36;;;;;;;;;;;30.80;99.90;;;;;;4894925;29;19923;-61
2023/08/14 13:08:03;;;;;;;;;;;30.90;99.90;;;;;;4892014;29;19931;-61
2023/08/14 13:10:30;;;;;;;;;;;30.80;99.90;;;;;;4899942;29;19929;-61
2023/08/14 13:12:57;;;;;;;;;;;30.80;99.90;;;;;;4900954;29;19930;-61
2023/08/14 13:15:24;;;;;;;;;;;30.90;99.90;;;;;;4901161;29;19930;-61
2023/08/14 13:17:51;;;;;;;;;;;30.90;99.90;;;;;;4900224;29;19928;-62
2023/08/14 13:20:17;;;;;;;;;;;30.90;99.90;;;;;;4896749;29;19927;-62
2023/08/14 13:22:44;;;;;;;;;;;30.90;99.90;;;;;;4900702;29;19931;-62
2023/08/14 13:25:11;;;;;;;;;;;30.80;99.90;;;;;;4899184;29;19923;-61
2023/08/14 13:27:38;;;;;;;;;;;30.60;99.90;;;;;;4899582;29;20278;-61
2023/08/14 13:30:07;;;;;;;;;;;30.60;99.90;;;;;;4898455;29;19923;-61
2023/08/14 13:32:45;;;;;;;;;;;30.60;99.90;;;;;;4899072;29;20302;-62
2023/08/14 13:35:12;;;;;;;;;;;30.60;99.90;;;;;;4898681;29;19946;-62
2023/08/14 13:37:38;;;;;;;;;;;30.80;99.90;;;;;;4899187;29;19924;-62
2023/08/14 13:40:07;;;;;;;;;;;30.80;99.90;;;;;;4900362;29;19923;-62
2023/08/14 13:42:33;;;;;;;;;;;30.80;99.90;;;;;;4899368;29;20385;-62
2023/08/14 13:45:00;;;;;;;;;;;30.70;99.90;;;;;;4894999;29;20290;-62
2023/08/14 13:47:43;;;;;;;;;;;30.60;99.90;;;;;;4895429;29;19923;-61
2023/08/14 13:50:22;;;;;;;;;;;30.50;99.90;;;;;;4897694;29;19940;-62
2023/08/14 13:52:58;;;;;;;;;;;30.30;99.90;;;;;;4900854;29;19930;-62
2023/08/14 13:55:26;;;;;;;;;;;30.20;99.90;;;;;;4901989;29;19924;-62
2023/08/14 13:57:53;;;;;;;;;;;30.20;99.90;;;;;;4904294;29;19927;-61
2023/08/14 14:00:22;;;;;;;;;;;30.20;99.90;;;;;;4908284;29;19927;-62
2023/08/14 14:02:55;;;;;;;;;;;30.30;99.90;;;;;;4898016;29;20301;-62
2023/08/14 14:05:22;;;;;;;;;;;30.30;99.90;;;;;;4906394;29;20393;-62
2023/08/14 14:07:49;;;;;;;;;;;30.20;99.90;;;;;;4917309;29;19973;-61
2023/08/14 14:10:21;;;;;;;;;;;30.10;99.90;;;;;;4921355;29;19927;-60
2023/08/14 14:12:48;;;;;;;;;;;30.10;99.90;;;;;;4902202;29;19923;-62
2023/08/14 14:15:27;;;;;;;;;;;30.00;99.90;;;;;;4904817;29;19995;-61
2023/08/14 14:17:54;;;;;;;;;;;29.90;99.90;;;;;;4912468;29;19923;-61